Time;durP1;ratioP1;P1;durP2;ratioP2;P2;SDS_P1;SDS_P2;PMS_P1;PMS_P2;Temp;Humidity;BMP_temperature;BMP_pressure;BME280_temperature;BME280_humidity;BME280_pressure;Samples;Min_cycle;Max_cycle;Signal;HPM_P1;HPM_P2
2022/03/20 00:01:40;;;;;;;2.40;1.50;;;;;;;4.90;100.00;103430.56;5019432;28;20511;-46
2022/03/20 00:04:05;;;;;;;4.63;1.70;;;;;;;4.86;100.00;103412.16;5053686;28;20119;-49
2022/03/20 00:06:31;;;;;;;4.20;1.52;;;;;;;4.80;100.00;103407.66;5053612;28;20472;-46
2022/03/20 00:08:57;;;;;;;2.55;1.67;;;;;;;4.39;100.00;103348.94;5035610;28;20037;-49
2022/03/20 00:11:22;;;;;;;3.50;1.50;;;;;;;4.68;100.00;103403.75;5053506;28;20532;-48
2022/03/20 00:13:48;;;;;;;3.13;2.03;;;;;;;4.66;100.00;103408.03;5035397;28;20033;-46
2022/03/20 00:16:13;;;;;;;2.47;1.90;;;;;;;4.51;100.00;103398.00;5035511;28;20334;-51
2022/03/20 00:18:39;;;;;;;6.35;2.17;;;;;;;4.57;100.00;103412.94;5035291;28;20033;-48
2022/03/20 00:21:04;;;;;;;6.25;2.55;;;;;;;4.43;100.00;103384.72;5035479;28;20041;-48
2022/03/20 00:23:29;;;;;;;3.70;2.00;;;;;;;4.11;100.00;103325.41;5049914;28;20047;-49
2022/03/20 00:25:55;;;;;;;3.55;1.63;;;;;;;4.48;100.00;103398.78;5048942;28;20480;-48
2022/03/20 00:28:23;;;;;;;5.05;2.22;;;;;;;4.51;100.00;103403.22;5001308;28;20148;-47
2022/03/20 00:30:48;;;;;;;2.47;1.77;;;;;;;4.47;100.00;103380.47;5047508;28;20550;-47
2022/03/20 00:33:14;;;;;;;3.58;2.15;;;;;;;4.47;100.00;103385.66;5035201;28;20144;-47
2022/03/20 00:35:40;;;;;;;4.72;2.50;;;;;;;4.48;100.00;103379.63;5036636;28;20029;-49
2022/03/20 00:38:06;;;;;;;5.07;2.75;;;;;;;4.32;100.00;103346.94;5031741;28;20029;-45
2022/03/20 00:40:32;;;;;;;5.72;3.10;;;;;;;4.20;100.00;103328.31;5039890;28;20048;-46
2022/03/20 00:42:57;;;;;;;9.50;3.33;;;;;;;4.49;100.00;103371.84;5025582;28;20399;-45
2022/03/20 00:45:22;;;;;;;7.63;3.30;;;;;;;4.31;100.00;103344.28;5039125;28;20495;-45
2022/03/20 00:47:48;;;;;;;5.57;3.83;;;;;;;4.38;100.00;103359.28;5033957;28;20032;-45
2022/03/20 00:50:14;;;;;;;5.65;3.20;;;;;;;4.01;100.00;103296.34;5035021;28;20369;-46
2022/03/20 00:52:39;;;;;;;5.47;3.75;;;;;;;4.03;100.00;103305.13;5015116;28;20029;-48
2022/03/20 00:55:05;;;;;;;5.20;3.60;;;;;;;4.36;100.00;103361.84;5034601;28;20027;-48
2022/03/20 00:57:30;;;;;;;4.65;3.63;;;;;;;4.02;100.00;103290.31;5034641;28;20052;-44
2022/03/20 00:59:56;;;;;;;4.55;3.63;;;;;;;4.27;100.00;103335.47;5036039;28;20116;-48
2022/03/20 01:02:21;;;;;;;5.05;3.72;;;;;;;4.09;100.00;103302.69;5046897;28;20114;-48
2022/03/20 01:04:47;;;;;;;7.72;4.40;;;;;;;4.29;100.00;103345.97;5041559;28;20111;-46
2022/03/20 01:07:12;;;;;;;4.65;4.10;;;;;;;3.94;100.00;103275.28;5031258;28;20033;-49
2022/03/20 01:09:39;;;;;;;5.53;4.55;;;;;;;4.29;100.00;103344.22;5048626;28;20029;-47
2022/03/20 01:12:06;;;;;;;10.32;4.75;;;;;;;4.24;100.00;103335.38;5035586;28;20029;-50
2022/03/20 01:14:32;;;;;;;5.93;4.53;;;;;;;4.20;100.00;103327.41;5045522;28;20041;-51
2022/03/20 01:16:58;;;;;;;7.38;5.68;;;;;;;4.16;100.00;103325.53;5034357;28;20499;-47
2022/03/20 01:19:24;;;;;;;6.63;5.43;;;;;;;4.16;100.00;103320.31;5028743;28;20029;-50
2022/03/20 01:21:51;;;;;;;6.32;5.32;;;;;;;4.15;100.00;103313.31;5032005;28;20037;-44
2022/03/20 01:24:16;;;;;;;8.13;5.40;;;;;;;3.82;100.00;103247.97;5047225;28;20052;-47
2022/03/20 01:26:41;;;;;;;7.53;4.88;;;;;;;4.16;100.00;103302.06;5040210;28;20508;-47
2022/03/20 01:29:07;;;;;;;6.72;5.28;;;;;;;4.19;100.00;103299.56;5040226;28;20065;-51
2022/03/20 01:31:36;;;;;;;7.53;5.65;;;;;;;4.15;100.00;103301.19;5046805;28;20041;-45
2022/03/20 01:34:03;;;;;;;8.57;6.18;;;;;;;4.15;100.00;103298.56;5049078;28;20029;-47
2022/03/20 01:36:28;;;;;;;9.23;6.65;;;;;;;4.14;100.00;103289.00;5038703;28;20384;-46
2022/03/20 01:38:53;;;;;;;8.13;6.20;;;;;;;3.83;100.00;103232.38;5041788;28;20033;-48
2022/03/20 01:41:19;;;;;;;7.05;6.15;;;;;;;4.06;100.00;103273.94;5045161;28;20391;-48
2022/03/20 01:43:57;;;;;;;12.13;6.93;;;;;;;3.82;100.00;103232.34;5035332;28;20042;-47
2022/03/20 01:46:22;;;;;;;8.52;6.40;;;;;;;4.07;100.00;103270.50;5046249;28;20034;-45
2022/03/20 01:48:51;;;;;;;8.63;6.63;;;;;;;3.75;100.00;103218.22;5034104;28;20039;-49
2022/03/20 01:51:17;;;;;;;7.78;6.07;;;;;;;3.91;100.00;103245.66;5014355;28;20025;-48
2022/03/20 01:53:43;;;;;;;8.02;6.75;;;;;;;4.04;100.00;103270.38;5033634;28;20392;-46
2022/03/20 01:56:09;;;;;;;8.88;7.05;;;;;;;4.05;100.00;103262.63;5034069;28;20033;-49
2022/03/20 01:58:35;;;;;;;9.75;7.82;;;;;;;3.60;100.00;103178.63;5030539;28;20365;-49
2022/03/20 02:01:03;;;;;;;8.70;7.20;;;;;;;4.00;100.00;103255.50;5033554;28;20040;-48
2022/03/20 02:03:29;;;;;;;8.65;7.63;;;;;;;3.87;100.00;103228.16;5051621;28;20040;-52
2022/03/20 02:05:55;;;;;;;10.25;8.13;;;;;;;3.89;100.00;103231.69;5035125;28;20034;-49
2022/03/20 02:08:25;;;;;;;11.52;8.27;;;;;;;3.98;100.00;103240.69;5046194;28;20030;-48
2022/03/20 02:10:52;;;;;;;9.80;8.10;;;;;;;3.89;100.00;103216.94;5034570;28;20029;-50
2022/03/20 02:13:20;;;;;;;10.10;8.48;;;;;;;3.92;100.00;103243.09;5030368;28;20030;-47
2022/03/20 02:15:46;;;;;;;13.38;8.80;;;;;;;3.58;100.00;103166.41;5048097;28;20377;-52
2022/03/20 02:18:11;;;;;;;12.52;8.88;;;;;;;3.85;100.00;103219.41;5027988;28;20087;-47
2022/03/20 02:20:37;;;;;;;10.45;8.70;;;;;;;3.48;100.00;103144.38;5030169;28;20125;-50
2022/03/20 02:23:02;;;;;;;11.65;9.10;;;;;;;3.89;100.00;103218.66;5016788;28;20029;-48
2022/03/20 02:25:29;;;;;;;11.95;9.13;;;;;;;3.86;100.00;103215.94;5036982;28;20457;-51
2022/03/20 02:27:54;;;;;;;12.32;8.35;;;;;;;3.83;100.00;103210.63;5047664;28;20126;-48
2022/03/20 02:30:19;;;;;;;13.30;9.50;;;;;;;3.77;100.00;103206.13;5036888;28;20029;-46
2022/03/20 02:32:47;;;;;;;11.43;8.90;;;;;;;3.00;100.00;103069.88;5042428;28;20042;-48
2022/03/20 02:35:14;;;;;;;13.23;9.23;;;;;;;3.72;100.00;103210.28;5044093;28;20040;-51
2022/03/20 02:37:42;;;;;;;12.75;9.48;;;;;;;3.27;100.00;103122.81;5034727;28;20034;-49
2022/03/20 02:40:08;;;;;;;10.20;9.02;;;;;;;3.37;100.00;103132.72;5017276;28;20033;-50
2022/03/20 02:42:35;;;;;;;10.25;8.63;;;;;;;3.72;100.00;103196.38;5044837;28;20072;-47
2022/03/20 02:45:12;;;;;;;13.50;8.98;;;;;;;3.59;100.00;103169.03;5046286;28;20123;-53
2022/03/20 02:47:47;;;;;;;11.65;9.55;;;;;;;3.59;100.00;103179.44;5039061;28;20033;-47
2022/03/20 02:50:17;;;;;;;13.23;10.13;;;;;;;3.30;100.00;103123.81;5039448;28;20086;-55
2022/03/20 02:52:54;;;;;;;12.75;10.30;;;;;;;3.52;100.00;103167.09;5033787;28;20100;-45
2022/03/20 02:55:22;;;;;;;13.05;9.82;;;;;;;3.37;100.00;103149.22;5048671;28;20102;-44
2022/03/20 02:57:49;;;;;;;12.80;9.77;;;;;;;3.00;100.00;103095.88;5034511;28;20370;-48
2022/03/20 03:00:17;;;;;;;14.43;9.23;;;;;;;3.39;100.00;103164.88;5050092;28;20037;-51
2022/03/20 03:02:43;;;;;;;12.35;9.75;;;;;;;2.90;100.00;103085.97;5043039;28;20036;-49
2022/03/20 03:05:10;;;;;;;12.63;9.82;;;;;;;3.19;100.00;103143.41;5033650;28;20034;-50
2022/03/20 03:13:09;;;;;;;11.75;9.48;;;;;;;3.12;100.00;103125.81;5042856;28;20049;-47
2022/03/20 03:15:34;;;;;;;13.90;9.70;;;;;;;2.75;100.00;103065.53;5032263;28;20060;-45
2022/03/20 03:18:00;;;;;;;14.82;9.80;;;;;;;2.72;100.00;103070.63;5054447;28;20037;-48
2022/03/20 03:20:26;;;;;;;13.57;9.77;;;;;;;3.01;100.00;103118.44;5033082;28;20038;-49
2022/03/20 03:22:51;;;;;;;14.75;9.48;;;;;;;3.07;100.00;103129.97;5043944;28;20064;-45
2022/03/20 03:25:17;;;;;;;12.57;9.10;;;;;;;2.78;100.00;103083.84;5041027;28;20043;-48
2022/03/20 03:27:42;;;;;;;12.98;9.93;;;;;;;3.07;100.00;103136.88;5050513;28;20063;-48
2022/03/20 03:30:08;;;;;;;13.30;9.65;;;;;;;3.07;100.00;103139.47;5038093;28;20041;-46
2022/03/20 03:32:34;;;;;;;11.27;8.60;;;;;;;3.07;100.00;103123.88;5046918;28;20033;-46
2022/03/20 03:37:44;;;;;;;10.15;8.25;;;;;;;3.06;100.00;103116.91;5037751;28;20111;-49
2022/03/20 03:40:09;;;;;;;10.90;7.80;;;;;;;3.03;100.00;103111.59;5049990;28;20033;-49
2022/03/20 03:42:36;;;;;;;11.85;8.45;;;;;;;2.63;100.00;103041.69;5041456;28;20049;-47
2022/03/20 03:45:03;;;;;;;10.90;8.68;;;;;;;2.57;100.00;103024.16;5042942;28;20033;-45
2022/03/20 03:47:28;;;;;;;12.40;9.35;;;;;;;2.74;100.00;103061.19;5035945;28;20525;-46
2022/03/20 03:49:54;;;;;;;11.25;8.75;;;;;;;2.73;100.00;103036.88;5037220;28;20029;-47
2022/03/20 03:52:19;;;;;;;12.38;8.10;;;;;;;3.09;100.00;103101.41;5032607;28;20120;-49
2022/03/20 03:54:45;;;;;;;10.70;8.27;;;;;;;3.07;100.00;103098.72;5042043;28;20039;-48
2022/03/20 03:57:10;;;;;;;12.52;8.75;;;;;;;3.03;100.00;103093.38;5049268;28;20021;-51
2022/03/20 03:59:35;;;;;;;13.82;9.25;;;;;;;3.00;100.00;103088.97;5053793;28;20399;-46
2022/03/20 04:02:01;;;;;;;13.15;9.27;;;;;;;2.66;100.00;103040.09;5036960;28;20068;-49
2022/03/20 04:04:27;;;;;;;12.73;9.00;;;;;;;2.95;100.00;103081.84;5047414;28;20041;-43
2022/03/20 04:06:54;;;;;;;13.32;9.57;;;;;;;2.98;100.00;103069.78;5043314;28;20404;-52
2022/03/20 04:09:19;;;;;;;13.57;8.93;;;;;;;3.04;100.00;103074.31;5032167;28;20037;-48
2022/03/20 04:11:44;;;;;;;13.65;8.95;;;;;;;2.88;100.00;103040.84;5050123;28;20534;-50
2022/03/20 04:14:10;;;;;;;10.82;8.57;;;;;;;2.98;100.00;103071.53;5037924;28;20068;-47
2022/03/20 04:16:35;;;;;;;14.68;9.23;;;;;;;2.90;100.00;103053.06;5032045;28;20069;-46
2022/03/20 04:19:00;;;;;;;13.27;9.95;;;;;;;2.44;100.00;102977.78;5035373;28;20116;-51
2022/03/20 04:21:26;;;;;;;15.00;9.68;;;;;;;2.76;100.00;103044.78;5031934;28;20038;-43
2022/03/20 04:23:51;;;;;;;13.20;9.73;;;;;;;2.82;100.00;103044.13;5033813;28;20067;-49
2022/03/20 04:26:19;;;;;;;14.50;9.35;;;;;;;2.51;100.00;102989.28;5038119;28;20033;-45
2022/03/20 04:28:46;;;;;;;12.00;9.70;;;;;;;2.69;100.00;103023.69;5044286;28;20500;-45
2022/03/20 04:31:15;;;;;;;15.43;10.50;;;;;;;2.74;100.00;103041.22;5035606;28;20037;-49
2022/03/20 04:33:50;;;;;;;15.98;10.20;;;;;;;2.75;100.00;103045.59;5031941;28;20465;-47
2022/03/20 04:36:16;;;;;;;14.32;9.02;;;;;;;2.30;100.00;102962.56;5037620;28;20040;-44
2022/03/20 04:38:43;;;;;;;16.80;10.88;;;;;;;2.66;100.00;103027.09;5031937;28;20095;-45
2022/03/20 04:41:09;;;;;;;13.07;10.60;;;;;;;2.46;100.00;102999.50;5045045;28;20041;-49
2022/03/20 04:43:34;;;;;;;11.73;9.65;;;;;;;2.64;100.00;103046.06;5037213;28;20029;-48
2022/03/20 04:45:59;;;;;;;14.52;10.63;;;;;;;2.68;100.00;103030.66;5049371;28;20029;-51
2022/03/20 04:59:20;;;;;;;14.43;10.30;;;;;;;2.60;100.00;103002.56;5033661;28;20056;-47
2022/03/20 05:01:46;;;;;;;19.52;10.60;;;;;;;2.62;100.00;103008.75;5023502;28;20033;-48
2022/03/20 05:04:13;;;;;;;15.77;10.88;;;;;;;2.54;100.00;103008.47;5030648;28;20420;-50
2022/03/20 05:06:39;;;;;;;18.63;11.75;;;;;;;2.11;100.00;102927.22;5044315;28;20400;-50
2022/03/20 05:14:32;;;;;;;16.77;10.88;;;;;;;2.46;100.00;103007.31;5052292;28;20106;-48
2022/03/20 05:16:57;;;;;;;13.90;11.20;;;;;;;2.47;100.00;102995.22;5052125;28;20024;-50
2022/03/20 05:19:22;;;;;;;16.30;11.38;;;;;;;2.01;100.00;102914.78;5052252;28;20033;-45
2022/03/20 05:21:48;;;;;;;15.80;11.20;;;;;;;2.49;100.00;102986.63;5052037;28;20036;-44
2022/03/20 05:24:13;;;;;;;19.83;12.23;;;;;;;2.10;100.00;102912.50;5048987;28;20032;-48
2022/03/20 05:26:39;;;;;;;14.48;11.00;;;;;;;2.45;100.00;102956.16;5015869;28;20041;-52
2022/03/20 05:29:05;;;;;;;17.40;11.93;;;;;;;2.28;100.00;102912.25;5014596;28;20053;-46
2022/03/20 05:31:31;;;;;;;17.42;11.75;;;;;;;2.48;100.00;102956.25;5032547;28;20413;-51
2022/03/20 05:33:56;;;;;;;17.23;11.32;;;;;;;2.38;100.00;102943.78;5032463;28;20485;-47
2022/03/20 05:36:22;;;;;;;14.27;11.55;;;;;;;2.42;100.00;102958.66;5014719;28;20083;-47
2022/03/20 05:38:47;;;;;;;18.40;12.43;;;;;;;2.37;100.00;102959.31;5014523;28;20142;-49
2022/03/20 05:43:56;;;;;;;15.15;11.52;;;;;;;2.27;100.00;102963.34;5032558;28;20496;-50
2022/03/20 05:46:21;;;;;;;16.25;11.55;;;;;;;2.15;100.00;102942.13;5032132;28;20033;-47
2022/03/20 05:48:47;;;;;;;15.90;12.10;;;;;;;2.18;100.00;102965.59;5014516;28;20037;-50
2022/03/20 05:51:15;;;;;;;16.33;12.52;;;;;;;2.11;100.00;102948.91;5032413;28;20041;-46
2022/03/20 05:53:41;;;;;;;15.65;12.15;;;;;;;2.15;100.00;102957.69;5032709;28;20033;-49
2022/03/20 05:58:50;;;;;;;18.38;11.82;;;;;;;2.06;100.00;102941.78;5039784;28;20459;-47
2022/03/20 06:01:16;;;;;;;15.88;12.48;;;;;;;2.04;100.00;102922.66;5052003;28;20029;-49
2022/03/20 06:03:42;;;;;;;14.75;12.07;;;;;;;2.22;100.00;102936.28;5005945;28;20492;-48
2022/03/20 06:06:08;;;;;;;18.15;11.98;;;;;;;2.30;100.00;102924.47;5014115;28;20034;-48
2022/03/20 06:08:35;;;;;;;17.92;12.57;;;;;;;2.37;100.00;102936.81;5031826;28;20111;-48
2022/03/20 06:11:00;;;;;;;15.75;12.18;;;;;;;2.08;100.00;102876.06;5014086;28;20444;-48
2022/03/20 06:13:27;;;;;;;19.73;12.60;;;;;;;2.48;100.00;102926.81;5031771;28;20089;-48
2022/03/20 06:15:55;;;;;;;15.80;11.77;;;;;;;2.52;100.00;102932.13;5014299;28;20041;-47
2022/03/20 06:18:20;;;;;;;21.27;12.85;;;;;;;2.26;100.00;102865.41;5018430;28;20060;-47
2022/03/20 06:20:45;;;;;;;16.10;11.40;;;;;;;2.36;100.00;102875.28;5035855;28;20033;-49
2022/03/20 06:23:11;;;;;;;16.90;13.25;;;;;;;2.79;100.00;102927.84;5018430;28;20033;-47
2022/03/20 06:25:36;;;;;;;18.38;12.65;;;;;;;2.72;100.00;102888.59;5036275;28;20033;-52
2022/03/20 06:28:02;;;;;;;15.57;12.20;;;;;;;2.50;100.00;102841.94;5035621;28;20049;-49
2022/03/20 06:30:32;;;;;;;17.85;13.23;;;;;;;3.10;100.00;102931.41;5035859;28;20114;-45
2022/03/20 06:32:58;;;;;;;14.73;11.73;;;;;;;3.18;100.00;102920.41;5035577;28;20060;-48
2022/03/20 06:35:23;;;;;;;21.73;13.50;;;;;;;3.19;100.00;102921.28;5035708;28;20037;-49
2022/03/20 06:37:50;;;;;;;15.45;11.63;;;;;;;3.20;100.00;102918.75;5017834;28;20030;-49
2022/03/20 06:40:16;;;;;;;15.15;12.35;;;;;;;3.45;100.00;102940.31;5035348;28;20057;-47
2022/03/20 06:42:42;;;;;;;17.00;12.80;;;;;;;3.54;100.00;102944.06;5017783;28;20469;-50
2022/03/20 06:45:10;;;;;;;17.90;12.60;;;;;;;3.24;100.00;102878.97;5035480;28;20034;-54
2022/03/20 06:47:36;;;;;;;18.67;12.63;;;;;;;3.65;100.00;102939.19;5050204;28;20041;-48
2022/03/20 06:50:03;;;;;;;18.63;13.65;;;;;;;3.51;100.00;102906.63;5054418;28;20429;-45
2022/03/20 06:52:29;;;;;;;15.25;12.18;;;;;;;3.55;100.00;102916.31;5054881;28;20033;-50
2022/03/20 06:54:58;;;;;;;16.33;12.25;;;;;;;3.69;100.00;102935.81;5037299;28;20028;-45
2022/03/20 06:57:25;;;;;;;17.10;12.02;;;;;;;3.40;100.00;102873.38;5054704;28;20083;-48
2022/03/20 06:59:51;;;;;;;16.73;12.75;;;;;;;3.74;100.00;102922.09;5037035;28;20029;-50
2022/03/20 07:02:18;;;;;;;14.75;12.63;;;;;;;3.41;100.00;102856.91;5054798;28;20079;-48
2022/03/20 07:04:51;;;;;;;17.40;12.80;;;;;;;3.76;100.00;102902.19;5055019;28;20033;-46
2022/03/20 07:07:20;;;;;;;19.83;12.95;;;;;;;3.69;100.00;102905.47;5055118;28;20033;-45
2022/03/20 07:09:46;;;;;;;15.35;11.95;;;;;;;3.83;100.00;102919.75;5036982;28;20073;-46
2022/03/20 07:12:12;;;;;;;18.92;13.57;;;;;;;3.83;100.00;102911.03;5020486;28;20033;-47
2022/03/20 07:14:38;;;;;;;17.80;12.88;;;;;;;3.95;100.00;102914.88;5054517;28;20025;-47
2022/03/20 07:17:07;;;;;;;18.45;12.25;;;;;;;4.10;100.00;102909.22;5037094;28;20029;-47
2022/03/20 07:19:35;;;;;;;15.57;11.88;;;;;;;4.19;100.00;102911.19;5037041;28;20029;-47
2022/03/20 07:22:01;;;;;;;17.52;13.48;;;;;;;4.26;100.00;102913.97;5036897;28;20060;-46
2022/03/20 07:24:26;;;;;;;16.75;12.63;;;;;;;4.02;100.00;102827.34;5036350;28;20021;-50
2022/03/20 07:29:35;;;;;;;16.35;12.27;;;;;;;4.92;100.00;102843.44;5053923;28;20470;-47
2022/03/20 07:32:06;;;;;;;15.25;11.70;;;;;;;5.75;100.00;102905.28;5036783;28;20037;-50
2022/03/20 07:34:34;;;;;;;15.70;12.45;;;;;;;5.81;100.00;102824.41;5054530;28;20492;-48
2022/03/20 07:37:00;;;;;;;15.98;11.77;;;;;;;6.44;100.00;102899.66;5036490;28;20464;-47
2022/03/20 07:39:26;;;;;;;15.38;12.05;;;;;;;6.79;100.00;102890.66;5054126;28;20130;-47
2022/03/20 07:41:51;;;;;;;15.80;11.82;;;;;;;7.14;100.00;102891.19;5019536;28;20045;-47
2022/03/20 07:44:16;;;;;;;17.13;12.43;;;;;;;7.14;100.00;102865.00;5054285;28;20044;-48
2022/03/20 07:46:43;;;;;;;13.90;11.88;;;;;;;6.91;100.00;102832.38;5054120;28;20033;-48
2022/03/20 07:49:08;;;;;;;17.60;12.35;;;;;;;6.78;100.00;102818.22;5054017;28;20025;-51
2022/03/20 07:51:35;;;;;;;14.68;12.25;;;;;;;7.25;100.00;102869.50;5049364;28;20022;-45
2022/03/20 07:54:00;;;;;;;15.98;12.88;;;;;;;7.08;100.00;102863.16;5034055;28;20124;-49
2022/03/20 07:56:28;;;;;;;15.38;12.82;;;;;;;6.61;100.00;102790.91;5033937;28;20116;-48
2022/03/20 07:58:54;;;;;;;15.05;11.75;;;;;;;6.82;100.00;102827.00;5016567;28;20037;-52
2022/03/20 08:01:20;;;;;;;15.90;12.85;;;;;;;7.08;100.00;102857.94;5033683;28;20029;-48
2022/03/20 08:03:46;;;;;;;17.58;13.32;;;;;;;7.13;100.00;102856.25;5016102;28;20156;-50
2022/03/20 08:06:11;;;;;;;19.20;12.75;;;;;;;7.12;100.00;102824.81;5033456;28;20065;-47
2022/03/20 08:08:39;;;;;;;17.05;12.32;;;;;;;7.43;100.00;102844.41;5033366;28;20033;-47
2022/03/20 08:11:06;;;;;;;16.83;12.75;;;;;;;7.53;100.00;102788.63;5015964;28;20084;-48
2022/03/20 08:13:31;;;;;;;16.17;12.25;;;;;;;8.15;100.00;102850.44;5015910;28;20029;-46
2022/03/20 08:15:57;;;;;;;16.25;12.60;;;;;;;8.09;100.00;102842.53;5033256;28;20025;-48
2022/03/20 08:18:23;;;;;;;16.65;12.00;;;;;;;8.09;100.00;102841.63;4999409;28;20038;-49
2022/03/20 08:20:48;;;;;;;13.60;11.88;;;;;;;7.74;100.00;102836.03;5033221;28;20037;-47
2022/03/20 08:23:13;;;;;;;18.50;13.55;;;;;;;7.36;100.00;102791.06;5015446;28;20034;-47
2022/03/20 08:25:39;;;;;;;16.40;12.23;;;;;;;7.78;100.00;102843.06;5033349;28;20083;-46
2022/03/20 08:28:05;;;;;;;18.50;13.10;;;;;;;7.43;100.00;102844.41;5033119;28;20041;-45
2022/03/20 08:30:31;;;;;;;16.17;12.70;;;;;;;6.70;100.00;102783.22;5033548;28;20037;-51
2022/03/20 08:32:57;;;;;;;19.10;14.50;;;;;;;6.63;100.00;102842.41;5033413;28;20025;-46
2022/03/20 08:35:22;;;;;;;18.52;12.90;;;;;;;6.32;100.00;102839.28;5033119;28;20112;-46
2022/03/20 08:37:49;;;;;;;15.80;13.57;;;;;;;5.69;100.00;102785.00;5032869;28;20120;-49
2022/03/20 08:40:17;;;;;;;16.67;13.18;;;;;;;5.59;100.00;102786.56;5014291;28;20029;-48
2022/03/20 08:42:47;;;;;;;19.33;14.98;;;;;;;5.24;100.00;102761.47;5015425;28;20037;-50
2022/03/20 08:45:13;;;;;;;17.73;13.88;;;;;;;5.59;100.00;102817.00;5015187;28;20033;-49
2022/03/20 08:47:39;;;;;;;17.65;13.50;;;;;;;5.65;100.00;102831.09;5032904;28;20440;-49
2022/03/20 08:50:06;;;;;;;19.65;13.95;;;;;;;5.81;100.00;102832.22;5033028;28;20090;-48
2022/03/20 08:52:31;;;;;;;18.02;13.77;;;;;;;5.47;100.00;102746.25;5044981;28;20538;-49
2022/03/20 08:54:56;;;;;;;17.27;13.50;;;;;;;5.90;100.00;102805.41;5052973;28;20033;-50
2022/03/20 08:57:25;;;;;;;18.13;14.10;;;;;;;5.77;100.00;102766.84;5052711;28;20044;-48
2022/03/20 08:59:51;;;;;;;17.08;12.77;;;;;;;5.67;100.00;102703.97;5034739;28;20396;-50
2022/03/20 09:02:17;;;;;;;19.95;14.70;;;;;;;6.16;100.00;102778.88;5052806;28;20032;-54
2022/03/20 09:04:42;;;;;;;16.75;13.18;;;;;;;5.92;100.00;102735.78;5052763;28;20028;-50
2022/03/20 09:07:07;;;;;;;16.85;13.45;;;;;;;5.83;100.00;102746.03;5018101;28;20028;-50
2022/03/20 09:09:33;;;;;;;17.33;13.45;;;;;;;6.08;100.00;102808.38;5052336;28;20098;-49
2022/03/20 09:11:59;;;;;;;18.73;15.07;;;;;;;5.56;100.00;102729.03;5052639;28;20060;-49
2022/03/20 09:14:25;;;;;;;19.73;14.73;;;;;;;5.81;100.00;102803.50;5034779;28;20037;-49
2022/03/20 09:19:35;;;;;;;20.02;14.43;;;;;;;5.76;100.00;102797.31;5052625;28;20077;-47
2022/03/20 09:22:01;;;;;;;18.77;14.10;;;;;;;5.34;100.00;102726.00;5034336;28;20045;-50
2022/03/20 09:24:27;;;;;;;15.35;13.02;;;;;;;5.69;100.00;102788.47;5052432;28;20040;-47
2022/03/20 09:26:52;;;;;;;20.23;15.40;;;;;;;5.31;100.00;102726.78;5034662;28;20033;-50
2022/03/20 09:29:18;;;;;;;21.00;15.32;;;;;;;5.25;100.00;102720.59;5052247;28;20053;-47
2022/03/20 09:31:45;;;;;;;19.38;13.10;;;;;;;5.60;100.00;102788.28;5017943;28;20037;-47
2022/03/20 09:34:11;;;;;;;18.17;13.18;;;;;;;5.67;100.00;102787.56;5051781;28;20115;-50
2022/03/20 09:36:36;;;;;;;20.17;14.90;;;;;;;5.26;100.00;102704.94;5052075;28;20512;-47
2022/03/20 09:39:02;;;;;;;17.58;14.38;;;;;;;5.70;100.00;102784.13;5052176;28;20036;-47
2022/03/20 09:41:31;;;;;;;20.63;14.80;;;;;;;5.67;100.00;102804.97;5033849;28;20037;-50
2022/03/20 09:43:57;;;;;;;17.60;13.88;;;;;;;5.63;100.00;102782.28;5034297;28;20036;-47
2022/03/20 09:46:25;;;;;;;17.33;14.02;;;;;;;5.34;100.00;102726.84;5051746;28;20033;-51
2022/03/20 09:48:52;;;;;;;19.33;14.85;;;;;;;5.71;100.00;102782.41;5033544;28;20554;-49
2022/03/20 09:51:17;;;;;;;25.40;16.15;;;;;;;5.77;100.00;102778.19;5051452;28;20480;-50
2022/03/20 09:53:43;;;;;;;19.70;15.02;;;;;;;5.68;100.00;102724.03;5051920;28;20037;-46
2022/03/20 09:56:12;;;;;;;17.25;14.63;;;;;;;6.25;100.00;102806.06;5051750;28;20029;-47
2022/03/20 09:58:38;;;;;;;18.83;15.07;;;;;;;5.97;100.00;102735.00;5051688;28;20476;-49
2022/03/20 10:01:03;;;;;;;20.35;13.65;;;;;;;6.32;100.00;102795.72;5033812;28;20068;-51
2022/03/20 10:03:30;;;;;;;19.58;14.00;;;;;;;6.49;100.00;102802.06;5051407;28;20133;-50
2022/03/20 10:06:17;;;;;;;19.55;14.73;;;;;;;6.59;100.00;102796.16;5052258;28;20480;-50
2022/03/20 10:08:54;;;;;;;21.05;14.63;;;;;;;6.85;100.00;102793.91;5034388;28;20033;-47
2022/03/20 10:11:20;;;;;;;18.67;14.88;;;;;;;7.05;100.00;102796.78;5051639;28;20029;-51
2022/03/20 10:14:07;;;;;;;24.48;16.10;;;;;;;7.16;100.00;102790.81;5051145;28;20114;-46
2022/03/20 10:16:38;;;;;;;18.42;14.98;;;;;;;6.89;100.00;102789.59;5051020;28;20090;-48
2022/03/20 10:19:23;;;;;;;19.42;14.88;;;;;;;6.84;100.00;102786.00;5051125;28;20396;-47
2022/03/20 10:22:09;;;;;;;21.23;15.77;;;;;;;6.65;100.00;102777.91;5050773;28;20082;-48
2022/03/20 10:24:36;;;;;;;23.45;16.42;;;;;;;6.28;100.00;102698.84;5051368;28;20450;-48
2022/03/20 10:27:01;;;;;;;21.60;16.17;;;;;;;6.80;100.00;102759.78;5033423;28;20025;-49
2022/03/20 10:29:30;;;;;;;24.52;17.25;;;;;;;6.89;100.00;102738.09;5050818;28;20060;-47
2022/03/20 10:31:59;;;;;;;19.58;14.98;;;;;;;7.16;100.00;102738.44;5033453;28;20400;-49
2022/03/20 10:34:25;;;;;;;18.85;15.27;;;;;;;7.50;100.00;102738.81;5033693;28;20051;-48
2022/03/20 10:36:51;;;;;;;17.90;15.20;;;;;;;7.88;100.00;102721.72;5051294;28;20527;-46
2022/03/20 10:39:19;;;;;;;21.20;16.05;;;;;;;8.91;100.00;102677.75;5033820;28;20425;-51
2022/03/20 10:41:46;;;;;;;24.73;16.88;;;;;;;10.24;100.00;102727.94;5051213;28;20191;-51
2022/03/20 10:44:18;;;;;;;18.75;16.45;;;;;;;11.27;100.00;102702.09;5051473;28;20040;-49
2022/03/20 10:46:55;;;;;;;19.70;15.88;;;;;;;12.49;98.68;102688.81;5033679;28;20029;-47
2022/03/20 10:49:21;;;;;;;21.17;16.50;;;;;;;13.00;89.67;102634.41;5051027;28;20396;-48
2022/03/20 10:52:03;;;;;;;21.58;16.80;;;;;;;13.51;84.85;102656.63;5027147;28;20037;-47
2022/03/20 10:54:43;;;;;;;20.70;17.20;;;;;;;12.76;88.06;102669.09;5031466;28;20038;-50
2022/03/20 10:57:11;;;;;;;20.67;17.85;;;;;;;12.97;89.95;102690.84;5031232;28;20026;-49
2022/03/20 10:59:37;;;;;;;21.83;18.30;;;;;;;12.99;93.88;102682.88;5031296;28;20045;-46
2022/03/20 11:02:05;;;;;;;20.85;18.13;;;;;;;13.08;89.40;102711.88;5031109;28;20034;-50
2022/03/20 11:04:32;;;;;;;23.05;18.45;;;;;;;12.91;92.86;102727.94;5033817;28;20036;-51
2022/03/20 11:06:59;;;;;;;23.30;19.27;;;;;;;11.83;98.75;102721.97;5017098;28;20033;-47
2022/03/20 11:09:25;;;;;;;20.40;18.27;;;;;;;10.80;100.00;102666.34;5016735;28;20037;-48
2022/03/20 11:11:53;;;;;;;23.58;18.95;;;;;;;10.83;100.00;102713.75;5035186;28;20068;-46
2022/03/20 11:14:21;;;;;;;24.75;19.40;;;;;;;10.58;100.00;102713.81;5034881;28;20041;-53
2022/03/20 11:16:49;;;;;;;23.98;19.27;;;;;;;10.23;100.00;102710.38;5035002;28;20033;-47
2022/03/20 11:19:17;;;;;;;24.23;20.92;;;;;;;9.75;100.00;102716.47;5034860;28;20416;-48
2022/03/20 11:21:44;;;;;;;23.13;20.65;;;;;;;9.19;100.00;102674.34;5016876;28;20041;-50
2022/03/20 11:24:10;;;;;;;25.80;20.92;;;;;;;9.20;100.00;102743.53;5000537;28;20366;-49
2022/03/20 11:26:39;;;;;;;24.20;20.27;;;;;;;8.96;100.00;102720.69;5017034;28;20045;-46
2022/03/20 11:29:08;;;;;;;25.88;20.08;;;;;;;8.87;100.00;102713.63;5036201;28;20493;-49
2022/03/20 11:31:36;;;;;;;27.48;20.63;;;;;;;8.92;100.00;102721.53;5033967;28;20496;-48
2022/03/20 11:34:08;;;;;;;22.63;19.80;;;;;;;8.92;100.00;102719.78;5026892;28;20458;-46
2022/03/20 11:37:02;;;;;;;25.25;20.38;;;;;;;8.91;100.00;102717.13;5052722;28;20048;-46
2022/03/20 11:39:28;;;;;;;21.10;18.52;;;;;;;9.00;100.00;102723.31;5041858;28;20025;-49
2022/03/20 11:42:20;;;;;;;23.08;18.80;;;;;;;9.41;100.00;102718.19;5041706;28;20040;-50
2022/03/20 11:44:52;;;;;;;20.80;17.73;;;;;;;9.76;100.00;102702.47;5050576;28;20068;-50
2022/03/20 11:47:20;;;;;;;23.52;19.70;;;;;;;10.61;100.00;102712.91;5045731;28;20147;-45
2022/03/20 11:50:11;;;;;;;21.20;18.92;;;;;;;11.41;100.00;102724.88;5042624;28;20471;-48